Filer City, Michigan
Current Conditions -  °F | °C
As of 2:15 PM on Monday 20 Oct 2014 (Local Time) from KMBL Reporting Station
Overcast Overcast  
Wind Chill: 52°   Ceiling: 4600
Heat Index: 52°   Visibility: 10mi
Dew Point: 43°   Wind: 14mph
Humidity: 71%   Direction: 340°NNW
Pressure: 29.84"   Gusts: 20mph
Location:  44.22°N, 86.29°W
Report Text: KMBL 201815Z AUTO 34012G17KT 10SM SCT017 BKN046 OVC055 11/06 A2984 RMK AO1
Loading
Personal Weather Stations






























Interactive Weather Map
Tropical Storm Tracking
New forecast layout! Learn more

10-Day Weather Forecast

Advertisements
Track Severe Weather on mobile